sensor_id;sensor_type;location;lat;lon;timestamp;P1;durP1;ratioP1;P2;durP2;ratioP2
68214;SDS011;55036;52.138;5.236;2024-01-27T00:02:06;16.60;;;4.07;;
68214;SDS011;55036;52.138;5.236;2024-01-27T00:04:32;14.80;;;4.28;;
68214;SDS011;55036;52.138;5.236;2024-01-27T00:07:02;13.85;;;3.78;;
68214;SDS011;55036;52.138;5.236;2024-01-27T00:09:29;12.27;;;4.13;;
68214;SDS011;55036;52.138;5.236;2024-01-27T00:11:56;11.02;;;3.85;;
68214;SDS011;55036;52.138;5.236;2024-01-27T00:14:22;18.35;;;6.68;;
68214;SDS011;55036;52.138;5.236;2024-01-27T00:16:49;17.48;;;6.25;;
68214;SDS011;55036;52.138;5.236;2024-01-27T00:19:16;12.25;;;5.18;;
68214;SDS011;55036;52.138;5.236;2024-01-27T00:21:43;14.43;;;4.78;;
68214;SDS011;55036;52.138;5.236;2024-01-27T00:24:10;17.63;;;4.30;;
68214;SDS011;55036;52.138;5.236;2024-01-27T00:26:37;13.23;;;4.50;;
68214;SDS011;55036;52.138;5.236;2024-01-27T00:29:03;10.68;;;4.25;;
68214;SDS011;55036;52.138;5.236;2024-01-27T00:31:30;9.57;;;2.83;;
68214;SDS011;55036;52.138;5.236;2024-01-27T00:33:57;17.98;;;3.88;;
68214;SDS011;55036;52.138;5.236;2024-01-27T00:36:24;11.13;;;3.40;;
68214;SDS011;55036;52.138;5.236;2024-01-27T00:38:50;14.75;;;4.03;;
68214;SDS011;55036;52.138;5.236;2024-01-27T00:41:17;16.45;;;4.70;;
68214;SDS011;55036;52.138;5.236;2024-01-27T00:43:45;13.55;;;4.90;;
68214;SDS011;55036;52.138;5.236;2024-01-27T00:46:12;15.75;;;4.57;;
68214;SDS011;55036;52.138;5.236;2024-01-27T00:48:39;8.30;;;3.17;;
68214;SDS011;55036;52.138;5.236;2024-01-27T00:51:05;8.52;;;3.42;;
68214;SDS011;55036;52.138;5.236;2024-01-27T00:53:32;9.68;;;3.30;;
68214;SDS011;55036;52.138;5.236;2024-01-27T00:55:59;8.38;;;3.22;;
68214;SDS011;55036;52.138;5.236;2024-01-27T00:58:27;14.23;;;3.22;;
68214;SDS011;55036;52.138;5.236;2024-01-27T01:00:54;11.93;;;3.05;;
68214;SDS011;55036;52.138;5.236;2024-01-27T01:03:21;12.32;;;3.53;;
68214;SDS011;55036;52.138;5.236;2024-01-27T01:05:48;10.07;;;3.88;;
68214;SDS011;55036;52.138;5.236;2024-01-27T01:08:15;11.20;;;3.15;;
68214;SDS011;55036;52.138;5.236;2024-01-27T01:10:41;11.57;;;4.28;;
68214;SDS011;55036;52.138;5.236;2024-01-27T01:13:08;7.85;;;3.22;;
68214;SDS011;55036;52.138;5.236;2024-01-27T01:15:35;11.95;;;3.60;;
68214;SDS011;55036;52.138;5.236;2024-01-27T01:18:02;11.68;;;3.17;;
68214;SDS011;55036;52.138;5.236;2024-01-27T01:20:30;11.75;;;3.22;;
68214;SDS011;55036;52.138;5.236;2024-01-27T01:22:58;7.18;;;3.15;;
68214;SDS011;55036;52.138;5.236;2024-01-27T01:25:25;11.18;;;3.47;;
68214;SDS011;55036;52.138;5.236;2024-01-27T01:27:52;11.85;;;3.78;;
68214;SDS011;55036;52.138;5.236;2024-01-27T01:30:19;12.65;;;3.33;;
68214;SDS011;55036;52.138;5.236;2024-01-27T01:32:46;9.88;;;3.63;;
68214;SDS011;55036;52.138;5.236;2024-01-27T01:35:14;10.05;;;2.78;;
68214;SDS011;55036;52.138;5.236;2024-01-27T01:37:41;8.20;;;2.60;;
68214;SDS011;55036;52.138;5.236;2024-01-27T01:40:08;13.07;;;2.63;;
68214;SDS011;55036;52.138;5.236;2024-01-27T01:42:35;16.48;;;3.15;;
68214;SDS011;55036;52.138;5.236;2024-01-27T01:45:01;7.13;;;2.40;;
68214;SDS011;55036;52.138;5.236;2024-01-27T01:47:28;12.02;;;2.45;;
68214;SDS011;55036;52.138;5.236;2024-01-27T01:49:55;13.88;;;3.95;;
68214;SDS011;55036;52.138;5.236;2024-01-27T01:52:23;17.73;;;2.97;;
68214;SDS011;55036;52.138;5.236;2024-01-27T01:54:50;11.52;;;3.03;;
68214;SDS011;55036;52.138;5.236;2024-01-27T01:57:17;9.32;;;3.00;;
68214;SDS011;55036;52.138;5.236;2024-01-27T01:59:44;6.70;;;2.95;;
68214;SDS011;55036;52.138;5.236;2024-01-27T02:02:12;14.98;;;3.58;;
68214;SDS011;55036;52.138;5.236;2024-01-27T02:04:39;15.95;;;4.00;;
68214;SDS011;55036;52.138;5.236;2024-01-27T02:07:10;10.50;;;3.42;;
68214;SDS011;55036;52.138;5.236;2024-01-27T02:09:37;11.63;;;2.67;;
68214;SDS011;55036;52.138;5.236;2024-01-27T02:12:04;14.38;;;3.13;;
68214;SDS011;55036;52.138;5.236;2024-01-27T02:14:31;11.02;;;2.80;;
68214;SDS011;55036;52.138;5.236;2024-01-27T02:16:58;16.02;;;2.63;;
68214;SDS011;55036;52.138;5.236;2024-01-27T02:19:25;10.85;;;2.80;;
68214;SDS011;55036;52.138;5.236;2024-01-27T02:21:52;12.93;;;3.60;;
68214;SDS011;55036;52.138;5.236;2024-01-27T02:24:18;10.95;;;2.90;;
68214;SDS011;55036;52.138;5.236;2024-01-27T02:26:45;12.10;;;3.13;;
68214;SDS011;55036;52.138;5.236;2024-01-27T02:29:12;5.95;;;2.50;;
68214;SDS011;55036;52.138;5.236;2024-01-27T02:31:39;12.57;;;2.97;;
68214;SDS011;55036;52.138;5.236;2024-01-27T02:34:06;11.25;;;2.70;;
68214;SDS011;55036;52.138;5.236;2024-01-27T02:36:33;10.20;;;3.75;;
68214;SDS011;55036;52.138;5.236;2024-01-27T02:38:59;18.10;;;3.13;;
68214;SDS011;55036;52.138;5.236;2024-01-27T02:41:26;16.60;;;2.97;;
68214;SDS011;55036;52.138;5.236;2024-01-27T02:43:53;6.13;;;2.38;;
68214;SDS011;55036;52.138;5.236;2024-01-27T02:46:20;9.55;;;2.20;;
68214;SDS011;55036;52.138;5.236;2024-01-27T02:48:47;13.70;;;2.50;;
68214;SDS011;55036;52.138;5.236;2024-01-27T02:51:18;12.98;;;3.03;;
68214;SDS011;55036;52.138;5.236;2024-01-27T02:53:46;14.93;;;2.90;;
68214;SDS011;55036;52.138;5.236;2024-01-27T02:56:13;11.20;;;2.83;;
68214;SDS011;55036;52.138;5.236;2024-01-27T02:58:42;12.32;;;2.75;;
68214;SDS011;55036;52.138;5.236;2024-01-27T03:01:08;7.32;;;2.33;;
68214;SDS011;55036;52.138;5.236;2024-01-27T03:03:35;7.50;;;2.53;;
68214;SDS011;55036;52.138;5.236;2024-01-27T03:06:02;8.68;;;2.10;;
68214;SDS011;55036;52.138;5.236;2024-01-27T03:08:29;11.38;;;2.92;;
68214;SDS011;55036;52.138;5.236;2024-01-27T03:10:56;11.38;;;2.30;;
68214;SDS011;55036;52.138;5.236;2024-01-27T03:13:22;10.93;;;2.25;;
68214;SDS011;55036;52.138;5.236;2024-01-27T03:15:49;17.65;;;2.83;;
68214;SDS011;55036;52.138;5.236;2024-01-27T03:18:16;10.43;;;2.33;;
68214;SDS011;55036;52.138;5.236;2024-01-27T03:20:43;14.52;;;3.13;;
68214;SDS011;55036;52.138;5.236;2024-01-27T03:23:09;11.25;;;2.53;;
68214;SDS011;55036;52.138;5.236;2024-01-27T03:25:36;12.55;;;2.78;;
68214;SDS011;55036;52.138;5.236;2024-01-27T03:28:03;10.27;;;2.80;;
68214;SDS011;55036;52.138;5.236;2024-01-27T03:30:30;8.20;;;2.67;;
68214;SDS011;55036;52.138;5.236;2024-01-27T03:32:57;11.32;;;2.95;;
68214;SDS011;55036;52.138;5.236;2024-01-27T03:35:24;14.35;;;2.38;;
68214;SDS011;55036;52.138;5.236;2024-01-27T03:37:51;12.55;;;2.63;;
68214;SDS011;55036;52.138;5.236;2024-01-27T03:40:18;10.25;;;2.67;;
68214;SDS011;55036;52.138;5.236;2024-01-27T03:42:45;13.90;;;3.25;;
68214;SDS011;55036;52.138;5.236;2024-01-27T03:45:12;10.27;;;2.40;;
68214;SDS011;55036;52.138;5.236;2024-01-27T03:47:38;11.70;;;2.08;;
68214;SDS011;55036;52.138;5.236;2024-01-27T03:50:05;10.77;;;2.00;;
68214;SDS011;55036;52.138;5.236;2024-01-27T03:52:33;16.13;;;2.70;;
68214;SDS011;55036;52.138;5.236;2024-01-27T03:55:01;9.77;;;3.35;;
68214;SDS011;55036;52.138;5.236;2024-01-27T03:57:27;11.52;;;2.75;;
68214;SDS011;55036;52.138;5.236;2024-01-27T03:59:54;18.45;;;2.65;;
68214;SDS011;55036;52.138;5.236;2024-01-27T04:02:21;11.32;;;1.88;;
68214;SDS011;55036;52.138;5.236;2024-01-27T04:04:48;12.30;;;2.42;;
68214;SDS011;55036;52.138;5.236;2024-01-27T04:07:14;13.98;;;2.88;;
68214;SDS011;55036;52.138;5.236;2024-01-27T04:09:41;12.40;;;2.50;;
68214;SDS011;55036;52.138;5.236;2024-01-27T04:12:08;14.80;;;2.88;;
68214;SDS011;55036;52.138;5.236;2024-01-27T04:14:36;13.55;;;2.63;;
68214;SDS011;55036;52.138;5.236;2024-01-27T04:17:03;16.27;;;2.72;;
68214;SDS011;55036;52.138;5.236;2024-01-27T04:19:29;12.38;;;2.55;;
68214;SDS011;55036;52.138;5.236;2024-01-27T04:21:56;10.10;;;2.38;;
68214;SDS011;55036;52.138;5.236;2024-01-27T04:24:23;9.85;;;3.22;;
68214;SDS011;55036;52.138;5.236;2024-01-27T04:26:50;7.97;;;2.53;;
68214;SDS011;55036;52.138;5.236;2024-01-27T04:29:16;15.80;;;3.05;;
68214;SDS011;55036;52.138;5.236;2024-01-27T04:31:43;12.88;;;3.33;;
68214;SDS011;55036;52.138;5.236;2024-01-27T04:34:10;10.15;;;2.47;;
68214;SDS011;55036;52.138;5.236;2024-01-27T04:36:37;10.52;;;3.00;;
68214;SDS011;55036;52.138;5.236;2024-01-27T04:39:04;13.63;;;3.10;;
68214;SDS011;55036;52.138;5.236;2024-01-27T04:41:31;16.42;;;4.00;;
68214;SDS011;55036;52.138;5.236;2024-01-27T04:43:58;12.75;;;3.30;;
68214;SDS011;55036;52.138;5.236;2024-01-27T04:46:25;11.55;;;3.17;;
68214;SDS011;55036;52.138;5.236;2024-01-27T04:48:52;16.05;;;3.42;;
68214;SDS011;55036;52.138;5.236;2024-01-27T04:51:18;9.40;;;2.88;;
68214;SDS011;55036;52.138;5.236;2024-01-27T04:53:45;14.55;;;4.55;;
68214;SDS011;55036;52.138;5.236;2024-01-27T04:56:12;13.05;;;3.42;;
68214;SDS011;55036;52.138;5.236;2024-01-27T04:58:39;9.73;;;3.80;;
68214;SDS011;55036;52.138;5.236;2024-01-27T05:01:06;17.42;;;3.97;;
68214;SDS011;55036;52.138;5.236;2024-01-27T05:03:33;12.90;;;3.83;;
68214;SDS011;55036;52.138;5.236;2024-01-27T05:06:00;13.98;;;3.90;;
68214;SDS011;55036;52.138;5.236;2024-01-27T05:08:27;16.73;;;4.43;;
68214;SDS011;55036;52.138;5.236;2024-01-27T05:10:53;13.13;;;3.50;;
68214;SDS011;55036;52.138;5.236;2024-01-27T05:13:24;20.58;;;4.65;;
68214;SDS011;55036;52.138;5.236;2024-01-27T05:15:51;14.95;;;4.35;;
68214;SDS011;55036;52.138;5.236;2024-01-27T05:18:18;12.85;;;3.33;;
68214;SDS011;55036;52.138;5.236;2024-01-27T05:20:45;15.13;;;4.25;;
68214;SDS011;55036;52.138;5.236;2024-01-27T05:23:12;11.38;;;3.85;;
68214;SDS011;55036;52.138;5.236;2024-01-27T05:25:38;8.55;;;3.22;;
68214;SDS011;55036;52.138;5.236;2024-01-27T05:28:05;11.98;;;3.95;;
68214;SDS011;55036;52.138;5.236;2024-01-27T05:30:32;13.63;;;4.03;;
68214;SDS011;55036;52.138;5.236;2024-01-27T05:32:59;17.45;;;4.60;;
68214;SDS011;55036;52.138;5.236;2024-01-27T05:35:26;10.95;;;3.58;;
68214;SDS011;55036;52.138;5.236;2024-01-27T05:37:53;19.13;;;4.57;;
68214;SDS011;55036;52.138;5.236;2024-01-27T05:40:20;10.98;;;3.92;;
68214;SDS011;55036;52.138;5.236;2024-01-27T05:42:46;12.68;;;4.63;;
68214;SDS011;55036;52.138;5.236;2024-01-27T05:45:15;14.07;;;4.68;;
68214;SDS011;55036;52.138;5.236;2024-01-27T05:47:42;14.98;;;4.95;;
68214;SDS011;55036;52.138;5.236;2024-01-27T05:50:09;11.15;;;4.45;;
68214;SDS011;55036;52.138;5.236;2024-01-27T05:52:36;12.80;;;4.32;;
68214;SDS011;55036;52.138;5.236;2024-01-27T05:55:02;12.32;;;3.95;;
68214;SDS011;55036;52.138;5.236;2024-01-27T05:57:32;10.57;;;4.10;;
68214;SDS011;55036;52.138;5.236;2024-01-27T05:59:59;9.65;;;4.20;;
68214;SDS011;55036;52.138;5.236;2024-01-27T06:02:26;13.32;;;4.07;;
68214;SDS011;55036;52.138;5.236;2024-01-27T06:04:53;10.40;;;4.78;;
68214;SDS011;55036;52.138;5.236;2024-01-27T06:07:20;14.18;;;4.20;;
68214;SDS011;55036;52.138;5.236;2024-01-27T06:09:47;8.25;;;3.95;;
68214;SDS011;55036;52.138;5.236;2024-01-27T06:12:13;13.07;;;4.82;;
68214;SDS011;55036;52.138;5.236;2024-01-27T06:14:40;17.33;;;5.10;;
68214;SDS011;55036;52.138;5.236;2024-01-27T06:17:08;9.82;;;4.32;;
68214;SDS011;55036;52.138;5.236;2024-01-27T06:19:34;12.35;;;4.57;;
68214;SDS011;55036;52.138;5.236;2024-01-27T06:22:01;9.73;;;3.85;;
68214;SDS011;55036;52.138;5.236;2024-01-27T06:24:31;11.55;;;4.35;;
68214;SDS011;55036;52.138;5.236;2024-01-27T06:26:58;17.98;;;5.30;;
68214;SDS011;55036;52.138;5.236;2024-01-27T06:29:25;10.80;;;4.55;;
68214;SDS011;55036;52.138;5.236;2024-01-27T06:31:53;11.52;;;4.32;;
68214;SDS011;55036;52.138;5.236;2024-01-27T06:34:20;11.93;;;4.35;;
68214;SDS011;55036;52.138;5.236;2024-01-27T06:36:47;12.48;;;4.50;;
68214;SDS011;55036;52.138;5.236;2024-01-27T06:39:13;12.23;;;4.03;;
68214;SDS011;55036;52.138;5.236;2024-01-27T06:41:40;16.08;;;4.85;;
68214;SDS011;55036;52.138;5.236;2024-01-27T06:44:07;8.82;;;4.13;;
68214;SDS011;55036;52.138;5.236;2024-01-27T06:46:35;12.82;;;4.57;;
68214;SDS011;55036;52.138;5.236;2024-01-27T06:49:02;10.18;;;4.20;;
68214;SDS011;55036;52.138;5.236;2024-01-27T06:51:29;10.15;;;3.95;;
68214;SDS011;55036;52.138;5.236;2024-01-27T06:53:55;9.23;;;4.18;;
68214;SDS011;55036;52.138;5.236;2024-01-27T06:56:22;14.80;;;4.93;;
68214;SDS011;55036;52.138;5.236;2024-01-27T06:58:49;9.27;;;3.95;;
68214;SDS011;55036;52.138;5.236;2024-01-27T07:01:16;8.70;;;4.80;;
68214;SDS011;55036;52.138;5.236;2024-01-27T07:03:42;10.07;;;4.15;;
68214;SDS011;55036;52.138;5.236;2024-01-27T07:06:11;13.48;;;6.00;;
68214;SDS011;55036;52.138;5.236;2024-01-27T07:08:38;14.70;;;5.78;;
68214;SDS011;55036;52.138;5.236;2024-01-27T07:11:04;11.90;;;6.93;;
68214;SDS011;55036;52.138;5.236;2024-01-27T07:13:31;17.73;;;9.10;;
68214;SDS011;55036;52.138;5.236;2024-01-27T07:15:58;16.75;;;9.68;;
68214;SDS011;55036;52.138;5.236;2024-01-27T07:18:25;20.00;;;10.32;;
68214;SDS011;55036;52.138;5.236;2024-01-27T07:20:52;15.15;;;9.10;;
68214;SDS011;55036;52.138;5.236;2024-01-27T07:23:21;15.98;;;7.55;;
68214;SDS011;55036;52.138;5.236;2024-01-27T07:25:47;17.75;;;7.85;;
68214;SDS011;55036;52.138;5.236;2024-01-27T07:28:14;12.05;;;6.25;;
68214;SDS011;55036;52.138;5.236;2024-01-27T07:30:42;13.82;;;6.35;;
68214;SDS011;55036;52.138;5.236;2024-01-27T07:33:09;10.90;;;5.68;;
68214;SDS011;55036;52.138;5.236;2024-01-27T07:35:36;13.02;;;6.68;;
68214;SDS011;55036;52.138;5.236;2024-01-27T07:38:05;12.30;;;6.45;;
68214;SDS011;55036;52.138;5.236;2024-01-27T07:40:32;16.25;;;7.22;;
68214;SDS011;55036;52.138;5.236;2024-01-27T07:42:59;20.02;;;7.85;;
68214;SDS011;55036;52.138;5.236;2024-01-27T07:45:25;19.85;;;9.63;;
68214;SDS011;55036;52.138;5.236;2024-01-27T07:47:52;18.75;;;9.60;;
68214;SDS011;55036;52.138;5.236;2024-01-27T07:50:19;19.88;;;8.45;;
68214;SDS011;55036;52.138;5.236;2024-01-27T07:52:46;16.80;;;8.48;;
68214;SDS011;55036;52.138;5.236;2024-01-27T07:55:12;18.83;;;11.05;;
68214;SDS011;55036;52.138;5.236;2024-01-27T07:57:39;20.27;;;8.82;;
68214;SDS011;55036;52.138;5.236;2024-01-27T08:00:06;19.75;;;8.10;;
68214;SDS011;55036;52.138;5.236;2024-01-27T08:02:33;14.77;;;6.85;;
68214;SDS011;55036;52.138;5.236;2024-01-27T08:05:00;15.50;;;7.07;;
68214;SDS011;55036;52.138;5.236;2024-01-27T08:07:30;13.60;;;7.40;;
68214;SDS011;55036;52.138;5.236;2024-01-27T08:09:56;14.35;;;7.35;;
68214;SDS011;55036;52.138;5.236;2024-01-27T08:12:23;12.52;;;6.63;;
68214;SDS011;55036;52.138;5.236;2024-01-27T08:14:50;16.17;;;6.68;;
68214;SDS011;55036;52.138;5.236;2024-01-27T08:17:17;21.98;;;9.75;;
68214;SDS011;55036;52.138;5.236;2024-01-27T08:19:43;17.13;;;10.20;;
68214;SDS011;55036;52.138;5.236;2024-01-27T08:22:10;19.27;;;10.20;;
68214;SDS011;55036;52.138;5.236;2024-01-27T08:24:37;19.23;;;10.50;;
68214;SDS011;55036;52.138;5.236;2024-01-27T08:27:04;20.05;;;9.18;;
68214;SDS011;55036;52.138;5.236;2024-01-27T08:29:31;16.45;;;8.85;;
68214;SDS011;55036;52.138;5.236;2024-01-27T08:31:59;19.42;;;7.85;;
68214;SDS011;55036;52.138;5.236;2024-01-27T08:34:26;15.95;;;8.07;;
68214;SDS011;55036;52.138;5.236;2024-01-27T08:36:53;18.30;;;8.48;;
68214;SDS011;55036;52.138;5.236;2024-01-27T08:39:26;13.65;;;7.43;;
68214;SDS011;55036;52.138;5.236;2024-01-27T08:41:52;16.05;;;7.93;;
68214;SDS011;55036;52.138;5.236;2024-01-27T08:44:19;17.88;;;7.55;;
68214;SDS011;55036;52.138;5.236;2024-01-27T08:46:46;13.75;;;8.18;;
68214;SDS011;55036;52.138;5.236;2024-01-27T08:49:13;23.90;;;8.65;;
68214;SDS011;55036;52.138;5.236;2024-01-27T08:51:40;21.42;;;7.85;;
68214;SDS011;55036;52.138;5.236;2024-01-27T08:54:07;16.83;;;7.22;;
68214;SDS011;55036;52.138;5.236;2024-01-27T08:56:33;18.10;;;8.80;;
68214;SDS011;55036;52.138;5.236;2024-01-27T08:59:05;22.40;;;9.23;;
68214;SDS011;55036;52.138;5.236;2024-01-27T09:01:31;15.73;;;9.00;;
68214;SDS011;55036;52.138;5.236;2024-01-27T09:03:58;24.58;;;8.77;;
68214;SDS011;55036;52.138;5.236;2024-01-27T09:06:26;21.83;;;8.38;;
68214;SDS011;55036;52.138;5.236;2024-01-27T09:08:57;16.58;;;7.53;;
68214;SDS011;55036;52.138;5.236;2024-01-27T09:11:24;21.60;;;7.93;;
68214;SDS011;55036;52.138;5.236;2024-01-27T09:13:53;14.77;;;7.20;;
68214;SDS011;55036;52.138;5.236;2024-01-27T09:16:20;14.20;;;7.28;;
68214;SDS011;55036;52.138;5.236;2024-01-27T09:18:47;14.50;;;6.60;;
68214;SDS011;55036;52.138;5.236;2024-01-27T09:21:16;13.10;;;6.68;;
68214;SDS011;55036;52.138;5.236;2024-01-27T09:23:54;17.88;;;7.50;;
68214;SDS011;55036;52.138;5.236;2024-01-27T09:26:22;17.15;;;7.20;;
68214;SDS011;55036;52.138;5.236;2024-01-27T09:28:49;17.02;;;6.90;;
68214;SDS011;55036;52.138;5.236;2024-01-27T09:31:22;17.63;;;7.13;;
68214;SDS011;55036;52.138;5.236;2024-01-27T09:33:50;11.80;;;6.10;;
68214;SDS011;55036;52.138;5.236;2024-01-27T09:36:19;13.27;;;6.05;;
68214;SDS011;55036;52.138;5.236;2024-01-27T09:38:46;15.45;;;7.35;;
68214;SDS011;55036;52.138;5.236;2024-01-27T09:41:13;16.75;;;6.80;;
68214;SDS011;55036;52.138;5.236;2024-01-27T09:43:44;16.70;;;7.25;;
68214;SDS011;55036;52.138;5.236;2024-01-27T09:46:11;19.85;;;7.22;;
68214;SDS011;55036;52.138;5.236;2024-01-27T09:48:39;20.77;;;7.60;;
68214;SDS011;55036;52.138;5.236;2024-01-27T09:51:07;17.27;;;6.75;;
68214;SDS011;55036;52.138;5.236;2024-01-27T09:53:34;23.08;;;7.70;;
68214;SDS011;55036;52.138;5.236;2024-01-27T09:56:02;14.65;;;6.38;;
68214;SDS011;55036;52.138;5.236;2024-01-27T09:58:31;16.38;;;6.57;;
68214;SDS011;55036;52.138;5.236;2024-01-27T10:00:59;21.92;;;7.63;;
68214;SDS011;55036;52.138;5.236;2024-01-27T10:03:27;13.68;;;6.50;;
68214;SDS011;55036;52.138;5.236;2024-01-27T10:05:56;14.13;;;6.57;;
68214;SDS011;55036;52.138;5.236;2024-01-27T10:08:23;17.05;;;7.00;;
68214;SDS011;55036;52.138;5.236;2024-01-27T10:10:52;16.08;;;6.60;;
68214;SDS011;55036;52.138;5.236;2024-01-27T10:13:20;17.83;;;6.97;;
68214;SDS011;55036;52.138;5.236;2024-01-27T10:16:03;18.05;;;7.28;;
68214;SDS011;55036;52.138;5.236;2024-01-27T10:18:34;13.83;;;6.23;;
68214;SDS011;55036;52.138;5.236;2024-01-27T10:21:15;10.77;;;5.20;;
68214;SDS011;55036;52.138;5.236;2024-01-27T10:23:42;14.75;;;6.30;;
68214;SDS011;55036;52.138;5.236;2024-01-27T10:26:09;11.52;;;4.45;;
68214;SDS011;55036;52.138;5.236;2024-01-27T10:28:37;10.65;;;6.53;;
68214;SDS011;55036;52.138;5.236;2024-01-27T10:31:10;12.23;;;5.28;;
68214;SDS011;55036;52.138;5.236;2024-01-27T10:33:38;12.77;;;5.50;;
68214;SDS011;55036;52.138;5.236;2024-01-27T10:36:06;18.48;;;6.93;;
68214;SDS011;55036;52.138;5.236;2024-01-27T10:38:37;18.38;;;7.03;;
68214;SDS011;55036;52.138;5.236;2024-01-27T10:41:07;19.75;;;7.30;;
68214;SDS011;55036;52.138;5.236;2024-01-27T10:43:37;19.63;;;6.55;;
68214;SDS011;55036;52.138;5.236;2024-01-27T10:46:05;14.27;;;6.15;;
68214;SDS011;55036;52.138;5.236;2024-01-27T10:48:36;15.88;;;6.65;;
68214;SDS011;55036;52.138;5.236;2024-01-27T10:51:06;17.33;;;5.70;;
68214;SDS011;55036;52.138;5.236;2024-01-27T10:53:34;17.25;;;6.03;;
68214;SDS011;55036;52.138;5.236;2024-01-27T10:56:03;17.10;;;5.90;;
68214;SDS011;55036;52.138;5.236;2024-01-27T10:58:36;17.10;;;5.90;;
68214;SDS011;55036;52.138;5.236;2024-01-27T11:01:09;16.10;;;6.15;;
68214;SDS011;55036;52.138;5.236;2024-01-27T11:06:09;19.83;;;6.10;;
68214;SDS011;55036;52.138;5.236;2024-01-27T11:08:39;16.45;;;7.05;;
68214;SDS011;55036;52.138;5.236;2024-01-27T11:11:09;19.02;;;6.07;;
68214;SDS011;55036;52.138;5.236;2024-01-27T11:13:37;17.80;;;6.43;;
68214;SDS011;55036;52.138;5.236;2024-01-27T11:16:05;11.10;;;4.78;;
68214;SDS011;55036;52.138;5.236;2024-01-27T11:18:41;15.13;;;5.28;;
68214;SDS011;55036;52.138;5.236;2024-01-27T11:21:13;14.50;;;5.43;;
68214;SDS011;55036;52.138;5.236;2024-01-27T11:23:43;14.35;;;5.88;;
68214;SDS011;55036;52.138;5.236;2024-01-27T11:26:20;16.98;;;5.93;;
68214;SDS011;55036;52.138;5.236;2024-01-27T11:28:48;16.38;;;5.82;;
68214;SDS011;55036;52.138;5.236;2024-01-27T11:31:17;13.73;;;6.20;;
68214;SDS011;55036;52.138;5.236;2024-01-27T11:33:47;17.60;;;6.50;;
68214;SDS011;55036;52.138;5.236;2024-01-27T11:36:22;15.80;;;6.85;;
68214;SDS011;55036;52.138;5.236;2024-01-27T11:38:51;16.23;;;6.20;;
68214;SDS011;55036;52.138;5.236;2024-01-27T11:41:28;14.85;;;6.00;;
68214;SDS011;55036;52.138;5.236;2024-01-27T11:43:56;15.02;;;5.65;;
68214;SDS011;55036;52.138;5.236;2024-01-27T11:46:26;13.88;;;5.32;;
68214;SDS011;55036;52.138;5.236;2024-01-27T11:48:52;18.83;;;5.03;;
68214;SDS011;55036;52.138;5.236;2024-01-27T11:51:20;15.90;;;6.43;;
68214;SDS011;55036;52.138;5.236;2024-01-27T11:53:50;20.02;;;5.63;;
68214;SDS011;55036;52.138;5.236;2024-01-27T11:56:20;17.42;;;4.82;;
68214;SDS011;55036;52.138;5.236;2024-01-27T11:58:48;16.67;;;4.32;;
68214;SDS011;55036;52.138;5.236;2024-01-27T12:01:15;15.27;;;3.83;;
68214;SDS011;55036;52.138;5.236;2024-01-27T12:03:42;16.52;;;3.65;;
68214;SDS011;55036;52.138;5.236;2024-01-27T12:06:11;11.93;;;4.00;;
68214;SDS011;55036;52.138;5.236;2024-01-27T12:08:41;11.88;;;4.13;;
68214;SDS011;55036;52.138;5.236;2024-01-27T12:11:14;15.80;;;4.28;;
68214;SDS011;55036;52.138;5.236;2024-01-27T12:13:43;14.43;;;4.22;;
68214;SDS011;55036;52.138;5.236;2024-01-27T12:16:09;11.45;;;3.80;;
68214;SDS011;55036;52.138;5.236;2024-01-27T12:18:37;10.10;;;3.78;;
68214;SDS011;55036;52.138;5.236;2024-01-27T12:21:04;18.98;;;4.85;;
68214;SDS011;55036;52.138;5.236;2024-01-27T12:23:30;9.82;;;3.65;;
68214;SDS011;55036;52.138;5.236;2024-01-27T12:25:57;13.52;;;3.72;;
68214;SDS011;55036;52.138;5.236;2024-01-27T12:28:24;15.15;;;3.75;;
68214;SDS011;55036;52.138;5.236;2024-01-27T12:30:52;13.27;;;3.80;;
68214;SDS011;55036;52.138;5.236;2024-01-27T12:33:19;10.00;;;3.22;;
68214;SDS011;55036;52.138;5.236;2024-01-27T12:35:51;14.00;;;4.60;;
68214;SDS011;55036;52.138;5.236;2024-01-27T12:38:20;10.55;;;3.83;;
68214;SDS011;55036;52.138;5.236;2024-01-27T12:40:48;12.07;;;3.83;;
68214;SDS011;55036;52.138;5.236;2024-01-27T12:43:14;14.35;;;4.35;;
68214;SDS011;55036;52.138;5.236;2024-01-27T12:45:41;14.90;;;3.85;;
68214;SDS011;55036;52.138;5.236;2024-01-27T12:48:08;12.02;;;3.65;;
68214;SDS011;55036;52.138;5.236;2024-01-27T12:50:36;10.82;;;3.53;;
68214;SDS011;55036;52.138;5.236;2024-01-27T12:53:02;12.80;;;3.40;;
68214;SDS011;55036;52.138;5.236;2024-01-27T12:55:29;12.90;;;3.17;;
68214;SDS011;55036;52.138;5.236;2024-01-27T12:57:56;14.32;;;3.42;;
68214;SDS011;55036;52.138;5.236;2024-01-27T13:00:23;14.80;;;3.45;;
68214;SDS011;55036;52.138;5.236;2024-01-27T13:02:50;7.50;;;2.30;;
68214;SDS011;55036;52.138;5.236;2024-01-27T13:05:17;10.85;;;2.88;;
68214;SDS011;55036;52.138;5.236;2024-01-27T13:07:43;8.90;;;2.72;;
68214;SDS011;55036;52.138;5.236;2024-01-27T13:10:11;15.25;;;3.30;;
68214;SDS011;55036;52.138;5.236;2024-01-27T13:12:38;7.70;;;2.70;;
68214;SDS011;55036;52.138;5.236;2024-01-27T13:15:05;11.63;;;2.85;;
68214;SDS011;55036;52.138;5.236;2024-01-27T13:17:32;10.02;;;2.40;;
68214;SDS011;55036;52.138;5.236;2024-01-27T13:19:59;14.88;;;3.33;;
68214;SDS011;55036;52.138;5.236;2024-01-27T13:22:25;6.72;;;2.30;;
68214;SDS011;55036;52.138;5.236;2024-01-27T13:24:52;16.15;;;3.20;;
68214;SDS011;55036;52.138;5.236;2024-01-27T13:27:20;11.60;;;2.55;;
68214;SDS011;55036;52.138;5.236;2024-01-27T13:29:47;8.27;;;2.75;;
68214;SDS011;55036;52.138;5.236;2024-01-27T13:32:14;9.73;;;2.47;;
68214;SDS011;55036;52.138;5.236;2024-01-27T13:34:41;10.05;;;2.00;;
68214;SDS011;55036;52.138;5.236;2024-01-27T13:37:09;11.40;;;2.63;;
68214;SDS011;55036;52.138;5.236;2024-01-27T13:39:36;11.38;;;2.20;;
68214;SDS011;55036;52.138;5.236;2024-01-27T13:42:03;11.60;;;2.72;;
68214;SDS011;55036;52.138;5.236;2024-01-27T13:44:31;12.70;;;3.10;;
68214;SDS011;55036;52.138;5.236;2024-01-27T13:47:02;11.32;;;3.30;;
68214;SDS011;55036;52.138;5.236;2024-01-27T13:49:33;11.38;;;2.67;;
68214;SDS011;55036;52.138;5.236;2024-01-27T13:52:00;12.65;;;3.10;;
68214;SDS011;55036;52.138;5.236;2024-01-27T13:54:31;11.18;;;2.60;;
68214;SDS011;55036;52.138;5.236;2024-01-27T13:57:01;16.42;;;3.30;;
68214;SDS011;55036;52.138;5.236;2024-01-27T13:59:28;14.27;;;3.33;;
68214;SDS011;55036;52.138;5.236;2024-01-27T14:01:56;16.48;;;3.90;;
68214;SDS011;55036;52.138;5.236;2024-01-27T14:04:24;17.67;;;4.07;;
68214;SDS011;55036;52.138;5.236;2024-01-27T14:06:51;15.00;;;3.80;;
68214;SDS011;55036;52.138;5.236;2024-01-27T14:09:19;8.73;;;3.00;;
68214;SDS011;55036;52.138;5.236;2024-01-27T14:11:47;16.52;;;3.58;;
68214;SDS011;55036;52.138;5.236;2024-01-27T14:14:14;9.85;;;2.95;;
68214;SDS011;55036;52.138;5.236;2024-01-27T14:16:43;18.67;;;4.18;;
68214;SDS011;55036;52.138;5.236;2024-01-27T14:19:10;12.48;;;3.40;;
68214;SDS011;55036;52.138;5.236;2024-01-27T14:21:37;14.60;;;3.88;;
68214;SDS011;55036;52.138;5.236;2024-01-27T14:24:06;15.27;;;3.65;;
68214;SDS011;55036;52.138;5.236;2024-01-27T14:26:34;12.18;;;3.88;;
68214;SDS011;55036;52.138;5.236;2024-01-27T14:29:01;15.38;;;3.85;;
68214;SDS011;55036;52.138;5.236;2024-01-27T14:31:28;11.38;;;3.25;;
68214;SDS011;55036;52.138;5.236;2024-01-27T14:33:56;13.88;;;3.05;;
68214;SDS011;55036;52.138;5.236;2024-01-27T14:36:24;15.95;;;3.72;;
68214;SDS011;55036;52.138;5.236;2024-01-27T14:38:52;12.52;;;2.75;;
68214;SDS011;55036;52.138;5.236;2024-01-27T14:41:18;10.00;;;3.38;;